Terminal Aerodrome Forecast
Issued by NWS

Home | Current Version | Previous Version | Graphics & Text | Print | Product List | Glossary On
Versions: 1 2 3 4 5 6 7 8 9 10 11 12
453
FTUS42 KMHX 222322
TAFOAJ
TAF
KOAJ 222322Z 2300/2324 12005KT P6SM OVC200
     FM230800 VRB04KT P6SM SCT030 BKN110
     FM231300 09010KT P6SM SCT030 OVC100
     FM231600 11015KT P6SM SCT030 OVC045
     FM232100 11015G25KT 6SM -SHRA BKN020 OVC030
      AMD LTD TO CLD VIS AND WIND=

USA.gov is the U.S. government's official web portal to all federal, state and local government web resources and services.